Terminal Aerodrome Forecast
Issued by NWS

Home | Current Version | Previous Version | Text Only | Print | Product List | Glossary On
Versions: 1 2 3 4 5 6 7 8 9 10 11 12 13 14 15 16 17 18
475
FTUS43 KABR 220419 AAB
TAFMBG
TAF AMD
KMBG 220419Z 2204/2224 02012KT P6SM BKN150
     FM221000 27007KT P6SM BKN200
     FM221700 30011KT P6SM BKN035
     FM221800 31011KT P6SM BKN015
     FM222300 35011KT P6SM OVC020=

USA.gov is the U.S. government's official web portal to all federal, state and local government web resources and services.